sensor_id;sensor_type;location;lat;lon;timestamp;temperature;humidity
7192;DHT22;3637;51.494;11.958;2022-10-18T00:01:38;16.70;99.90
7192;DHT22;3637;51.494;11.958;2022-10-18T00:04:40;16.60;99.90
7192;DHT22;3637;51.494;11.958;2022-10-18T00:07:43;16.80;99.90
7192;DHT22;3637;51.494;11.958;2022-10-18T00:10:45;16.60;99.90
7192;DHT22;3637;51.494;11.958;2022-10-18T00:13:47;16.70;99.90
7192;DHT22;3637;51.494;11.958;2022-10-18T00:16:49;16.70;99.90
7192;DHT22;3637;51.494;11.958;2022-10-18T00:19:51;16.90;99.90
7192;DHT22;3637;51.494;11.958;2022-10-18T00:22:55;16.70;99.90
7192;DHT22;3637;51.494;11.958;2022-10-18T00:26:01;16.70;99.90
7192;DHT22;3637;51.494;11.958;2022-10-18T00:29:05;16.70;99.90
7192;DHT22;3637;51.494;11.958;2022-10-18T00:32:07;16.70;99.90
7192;DHT22;3637;51.494;11.958;2022-10-18T00:35:09;16.80;99.90
7192;DHT22;3637;51.494;11.958;2022-10-18T00:38:14;16.90;99.90
7192;DHT22;3637;51.494;11.958;2022-10-18T00:41:18;16.70;99.90
7192;DHT22;3637;51.494;11.958;2022-10-18T00:48:14;16.70;99.90
7192;DHT22;3637;51.494;11.958;2022-10-18T00:51:19;16.60;99.90
7192;DHT22;3637;51.494;11.958;2022-10-18T00:54:24;16.70;99.90
7192;DHT22;3637;51.494;11.958;2022-10-18T00:57:27;17.00;99.90
7192;DHT22;3637;51.494;11.958;2022-10-18T01:00:29;16.60;99.90
7192;DHT22;3637;51.494;11.958;2022-10-18T01:03:31;16.70;99.90
7192;DHT22;3637;51.494;11.958;2022-10-18T01:06:40;16.70;99.90
7192;DHT22;3637;51.494;11.958;2022-10-18T01:09:56;16.70;99.90
7192;DHT22;3637;51.494;11.958;2022-10-18T01:13:11;16.70;99.90
7192;DHT22;3637;51.494;11.958;2022-10-18T01:16:19;16.70;99.90
7192;DHT22;3637;51.494;11.958;2022-10-18T01:20:02;16.60;99.90
7192;DHT22;3637;51.494;11.958;2022-10-18T01:23:09;16.70;99.90
7192;DHT22;3637;51.494;11.958;2022-10-18T01:26:23;16.70;99.90
7192;DHT22;3637;51.494;11.958;2022-10-18T01:29:36;16.70;99.90
7192;DHT22;3637;51.494;11.958;2022-10-18T01:32:46;16.70;99.90
7192;DHT22;3637;51.494;11.958;2022-10-18T01:35:52;16.70;99.90
7192;DHT22;3637;51.494;11.958;2022-10-18T01:38:56;16.70;99.90
7192;DHT22;3637;51.494;11.958;2022-10-18T01:42:01;16.70;99.90
7192;DHT22;3637;51.494;11.958;2022-10-18T01:45:07;16.70;99.90
7192;DHT22;3637;51.494;11.958;2022-10-18T01:48:12;16.70;99.90
7192;DHT22;3637;51.494;11.958;2022-10-18T01:51:17;16.60;99.90
7192;DHT22;3637;51.494;11.958;2022-10-18T01:54:23;16.60;99.90
7192;DHT22;3637;51.494;11.958;2022-10-18T01:57:33;16.60;99.90
7192;DHT22;3637;51.494;11.958;2022-10-18T02:00:39;16.60;99.90
7192;DHT22;3637;51.494;11.958;2022-10-18T02:03:45;16.60;99.90
7192;DHT22;3637;51.494;11.958;2022-10-18T02:06:52;16.60;99.90
7192;DHT22;3637;51.494;11.958;2022-10-18T02:10:02;16.60;99.90
7192;DHT22;3637;51.494;11.958;2022-10-18T02:13:06;16.60;99.90
7192;DHT22;3637;51.494;11.958;2022-10-18T02:16:12;16.60;99.90
7192;DHT22;3637;51.494;11.958;2022-10-18T02:19:19;16.60;99.90
7192;DHT22;3637;51.494;11.958;2022-10-18T02:22:25;16.60;99.90
7192;DHT22;3637;51.494;11.958;2022-10-18T02:25:30;16.60;99.90
7192;DHT22;3637;51.494;11.958;2022-10-18T02:28:34;16.60;99.90
7192;DHT22;3637;51.494;11.958;2022-10-18T02:31:40;16.50;99.90
7192;DHT22;3637;51.494;11.958;2022-10-18T02:34:48;16.50;99.90
7192;DHT22;3637;51.494;11.958;2022-10-18T02:37:53;16.50;99.90
7192;DHT22;3637;51.494;11.958;2022-10-18T02:40:57;16.60;99.90
7192;DHT22;3637;51.494;11.958;2022-10-18T02:43:59;16.50;99.90
7192;DHT22;3637;51.494;11.958;2022-10-18T02:47:02;16.50;99.90
7192;DHT22;3637;51.494;11.958;2022-10-18T02:50:07;16.50;99.90
7192;DHT22;3637;51.494;11.958;2022-10-18T02:53:09;16.40;99.90
7192;DHT22;3637;51.494;11.958;2022-10-18T02:56:11;16.40;99.90
7192;DHT22;3637;51.494;11.958;2022-10-18T02:59:13;16.40;99.90
7192;DHT22;3637;51.494;11.958;2022-10-18T03:02:15;16.40;99.90
7192;DHT22;3637;51.494;11.958;2022-10-18T03:05:19;16.60;99.90
7192;DHT22;3637;51.494;11.958;2022-10-18T03:08:20;16.40;99.90
7192;DHT22;3637;51.494;11.958;2022-10-18T03:11:22;16.40;99.90
7192;DHT22;3637;51.494;11.958;2022-10-18T03:14:24;16.50;99.90
7192;DHT22;3637;51.494;11.958;2022-10-18T03:17:28;16.60;99.90
7192;DHT22;3637;51.494;11.958;2022-10-18T03:20:32;16.40;99.90
7192;DHT22;3637;51.494;11.958;2022-10-18T03:23:34;16.40;99.90
7192;DHT22;3637;51.494;11.958;2022-10-18T03:26:36;16.30;99.90
7192;DHT22;3637;51.494;11.958;2022-10-18T03:29:38;16.40;99.90
7192;DHT22;3637;51.494;11.958;2022-10-18T03:32:40;16.40;99.90
7192;DHT22;3637;51.494;11.958;2022-10-18T03:35:43;16.40;99.90
7192;DHT22;3637;51.494;11.958;2022-10-18T03:38:45;16.40;99.90
7192;DHT22;3637;51.494;11.958;2022-10-18T03:41:47;16.60;99.90
7192;DHT22;3637;51.494;11.958;2022-10-18T03:44:50;16.50;99.90
7192;DHT22;3637;51.494;11.958;2022-10-18T03:47:52;16.40;99.90
7192;DHT22;3637;51.494;11.958;2022-10-18T03:50:55;16.50;99.90
7192;DHT22;3637;51.494;11.958;2022-10-18T03:53:58;16.40;99.90
7192;DHT22;3637;51.494;11.958;2022-10-18T03:57:00;16.50;99.90
7192;DHT22;3637;51.494;11.958;2022-10-18T04:00:03;16.40;99.90
7192;DHT22;3637;51.494;11.958;2022-10-18T04:03:05;16.40;99.90
7192;DHT22;3637;51.494;11.958;2022-10-18T04:06:08;16.50;99.90
7192;DHT22;3637;51.494;11.958;2022-10-18T04:09:10;16.50;99.90
7192;DHT22;3637;51.494;11.958;2022-10-18T04:12:12;16.40;99.90
7192;DHT22;3637;51.494;11.958;2022-10-18T04:15:14;16.40;99.90
7192;DHT22;3637;51.494;11.958;2022-10-18T04:18:16;16.50;99.90
7192;DHT22;3637;51.494;11.958;2022-10-18T04:21:19;16.40;99.90
7192;DHT22;3637;51.494;11.958;2022-10-18T04:24:21;16.40;99.90
7192;DHT22;3637;51.494;11.958;2022-10-18T04:27:23;16.60;99.90
7192;DHT22;3637;51.494;11.958;2022-10-18T04:30:25;16.40;99.90
7192;DHT22;3637;51.494;11.958;2022-10-18T04:33:27;16.40;99.90
7192;DHT22;3637;51.494;11.958;2022-10-18T04:36:30;16.40;99.90
7192;DHT22;3637;51.494;11.958;2022-10-18T04:39:32;16.40;99.90
7192;DHT22;3637;51.494;11.958;2022-10-18T04:42:34;16.40;99.90
7192;DHT22;3637;51.494;11.958;2022-10-18T04:45:36;16.40;99.90
7192;DHT22;3637;51.494;11.958;2022-10-18T04:48:38;16.40;99.90
7192;DHT22;3637;51.494;11.958;2022-10-18T04:51:41;16.40;99.90
7192;DHT22;3637;51.494;11.958;2022-10-18T04:54:43;16.40;99.90
7192;DHT22;3637;51.494;11.958;2022-10-18T04:57:45;16.40;99.90
7192;DHT22;3637;51.494;11.958;2022-10-18T05:00:47;16.40;99.90
7192;DHT22;3637;51.494;11.958;2022-10-18T05:03:51;16.40;99.90
7192;DHT22;3637;51.494;11.958;2022-10-18T05:06:55;16.50;99.90
7192;DHT22;3637;51.494;11.958;2022-10-18T05:09:57;16.50;99.90
7192;DHT22;3637;51.494;11.958;2022-10-18T05:12:58;16.50;99.90
7192;DHT22;3637;51.494;11.958;2022-10-18T05:16:00;16.70;99.90
7192;DHT22;3637;51.494;11.958;2022-10-18T05:19:03;16.80;99.90
7192;DHT22;3637;51.494;11.958;2022-10-18T05:22:07;16.50;99.90
7192;DHT22;3637;51.494;11.958;2022-10-18T05:25:09;16.50;99.90
7192;DHT22;3637;51.494;11.958;2022-10-18T05:28:11;16.50;99.90
7192;DHT22;3637;51.494;11.958;2022-10-18T05:31:13;16.60;99.90
7192;DHT22;3637;51.494;11.958;2022-10-18T05:34:15;16.50;99.90
7192;DHT22;3637;51.494;11.958;2022-10-18T05:37:19;16.50;99.90
7192;DHT22;3637;51.494;11.958;2022-10-18T05:40:21;16.50;99.90
7192;DHT22;3637;51.494;11.958;2022-10-18T05:43:29;16.40;99.90
7192;DHT22;3637;51.494;11.958;2022-10-18T05:46:31;16.60;99.90
7192;DHT22;3637;51.494;11.958;2022-10-18T05:49:33;16.60;99.90
7192;DHT22;3637;51.494;11.958;2022-10-18T05:52:37;16.70;99.90
7192;DHT22;3637;51.494;11.958;2022-10-18T05:55:38;16.60;99.90
7192;DHT22;3637;51.494;11.958;2022-10-18T05:58:41;16.60;99.90
7192;DHT22;3637;51.494;11.958;2022-10-18T06:01:43;16.60;99.90
7192;DHT22;3637;51.494;11.958;2022-10-18T06:04:45;16.60;99.90
7192;DHT22;3637;51.494;11.958;2022-10-18T06:07:48;16.60;99.90
7192;DHT22;3637;51.494;11.958;2022-10-18T06:10:50;16.50;99.90
7192;DHT22;3637;51.494;11.958;2022-10-18T06:13:52;16.60;99.90
7192;DHT22;3637;51.494;11.958;2022-10-18T06:16:54;16.50;99.90
7192;DHT22;3637;51.494;11.958;2022-10-18T06:19:57;16.50;99.90
7192;DHT22;3637;51.494;11.958;2022-10-18T06:23:00;16.50;99.90
7192;DHT22;3637;51.494;11.958;2022-10-18T06:26:04;16.50;99.90
7192;DHT22;3637;51.494;11.958;2022-10-18T06:29:06;16.50;99.90
7192;DHT22;3637;51.494;11.958;2022-10-18T06:32:09;16.50;99.90
7192;DHT22;3637;51.494;11.958;2022-10-18T06:35:11;16.50;99.90
7192;DHT22;3637;51.494;11.958;2022-10-18T06:38:15;16.40;99.90
7192;DHT22;3637;51.494;11.958;2022-10-18T06:41:17;16.40;99.90
7192;DHT22;3637;51.494;11.958;2022-10-18T06:44:20;16.40;99.90
7192;DHT22;3637;51.494;11.958;2022-10-18T06:47:22;16.40;99.90
7192;DHT22;3637;51.494;11.958;2022-10-18T06:50:24;16.30;99.90
7192;DHT22;3637;51.494;11.958;2022-10-18T06:53:29;16.50;99.90
7192;DHT22;3637;51.494;11.958;2022-10-18T06:56:31;16.30;99.90
7192;DHT22;3637;51.494;11.958;2022-10-18T06:59:33;16.30;99.90
7192;DHT22;3637;51.494;11.958;2022-10-18T07:02:35;16.30;99.90
7192;DHT22;3637;51.494;11.958;2022-10-18T07:05:40;16.30;99.90
7192;DHT22;3637;51.494;11.958;2022-10-18T07:08:44;16.30;99.90
7192;DHT22;3637;51.494;11.958;2022-10-18T07:11:46;16.40;99.90
7192;DHT22;3637;51.494;11.958;2022-10-18T07:14:48;16.30;99.90
7192;DHT22;3637;51.494;11.958;2022-10-18T07:17:50;16.20;99.90
7192;DHT22;3637;51.494;11.958;2022-10-18T07:20:52;16.30;99.90
7192;DHT22;3637;51.494;11.958;2022-10-18T07:23:56;16.30;99.90
7192;DHT22;3637;51.494;11.958;2022-10-18T07:26:58;16.30;99.90
7192;DHT22;3637;51.494;11.958;2022-10-18T07:30:03;16.30;99.90
7192;DHT22;3637;51.494;11.958;2022-10-18T07:33:05;16.30;99.90
7192;DHT22;3637;51.494;11.958;2022-10-18T07:36:09;16.30;99.90
7192;DHT22;3637;51.494;11.958;2022-10-18T07:39:13;16.40;99.90
7192;DHT22;3637;51.494;11.958;2022-10-18T07:42:15;16.30;99.90
7192;DHT22;3637;51.494;11.958;2022-10-18T07:45:16;16.40;99.90
7192;DHT22;3637;51.494;11.958;2022-10-18T07:48:18;16.30;99.90
7192;DHT22;3637;51.494;11.958;2022-10-18T07:51:21;16.30;99.90
7192;DHT22;3637;51.494;11.958;2022-10-18T07:54:24;16.30;99.90
7192;DHT22;3637;51.494;11.958;2022-10-18T07:57:29;16.30;99.90
7192;DHT22;3637;51.494;11.958;2022-10-18T08:00:31;16.30;99.90
7192;DHT22;3637;51.494;11.958;2022-10-18T08:03:33;16.20;99.90
7192;DHT22;3637;51.494;11.958;2022-10-18T08:06:35;16.20;99.90
7192;DHT22;3637;51.494;11.958;2022-10-18T08:09:39;16.20;99.90
7192;DHT22;3637;51.494;11.958;2022-10-18T08:12:41;16.10;99.90
7192;DHT22;3637;51.494;11.958;2022-10-18T08:15:43;16.20;99.90
7192;DHT22;3637;51.494;11.958;2022-10-18T08:18:45;16.20;99.90
7192;DHT22;3637;51.494;11.958;2022-10-18T08:21:47;16.20;99.90
7192;DHT22;3637;51.494;11.958;2022-10-18T08:24:51;16.40;99.90
7192;DHT22;3637;51.494;11.958;2022-10-18T08:27:52;16.20;99.90
7192;DHT22;3637;51.494;11.958;2022-10-18T08:31:01;16.20;99.90
7192;DHT22;3637;51.494;11.958;2022-10-18T08:34:03;16.20;99.90
7192;DHT22;3637;51.494;11.958;2022-10-18T08:37:05;16.30;99.90
7192;DHT22;3637;51.494;11.958;2022-10-18T08:40:11;16.20;99.90
7192;DHT22;3637;51.494;11.958;2022-10-18T08:43:19;16.10;99.90
7192;DHT22;3637;51.494;11.958;2022-10-18T08:46:25;16.10;99.90
7192;DHT22;3637;51.494;11.958;2022-10-18T08:49:31;16.10;99.90
7192;DHT22;3637;51.494;11.958;2022-10-18T08:52:42;16.10;99.90
7192;DHT22;3637;51.494;11.958;2022-10-18T08:55:49;16.20;99.90
7192;DHT22;3637;51.494;11.958;2022-10-18T08:58:52;16.10;99.90
7192;DHT22;3637;51.494;11.958;2022-10-18T09:02:01;16.10;99.90
7192;DHT22;3637;51.494;11.958;2022-10-18T09:05:15;16.10;99.90
7192;DHT22;3637;51.494;11.958;2022-10-18T09:08:45;16.30;99.90
7192;DHT22;3637;51.494;11.958;2022-10-18T09:11:57;16.10;99.90
7192;DHT22;3637;51.494;11.958;2022-10-18T09:15:08;16.20;99.90
7192;DHT22;3637;51.494;11.958;2022-10-18T09:18:23;16.10;99.90
7192;DHT22;3637;51.494;11.958;2022-10-18T09:21:38;16.20;99.90
7192;DHT22;3637;51.494;11.958;2022-10-18T09:24:48;16.10;99.90
7192;DHT22;3637;51.494;11.958;2022-10-18T09:27:55;16.20;99.90
7192;DHT22;3637;51.494;11.958;2022-10-18T09:31:04;16.20;99.90
7192;DHT22;3637;51.494;11.958;2022-10-18T09:34:11;16.20;99.90
7192;DHT22;3637;51.494;11.958;2022-10-18T09:37:17;16.20;99.90
7192;DHT22;3637;51.494;11.958;2022-10-18T09:40:23;16.30;99.90
7192;DHT22;3637;51.494;11.958;2022-10-18T09:43:36;16.30;99.90
7192;DHT22;3637;51.494;11.958;2022-10-18T09:46:42;16.40;99.90
7192;DHT22;3637;51.494;11.958;2022-10-18T09:49:48;16.70;99.90
7192;DHT22;3637;51.494;11.958;2022-10-18T09:52:56;16.30;99.90
7192;DHT22;3637;51.494;11.958;2022-10-18T09:56:04;16.30;99.90
7192;DHT22;3637;51.494;11.958;2022-10-18T09:59:26;16.30;99.90
7192;DHT22;3637;51.494;11.958;2022-10-18T10:02:28;16.40;99.90
7192;DHT22;3637;51.494;11.958;2022-10-18T10:05:30;16.30;99.90
7192;DHT22;3637;51.494;11.958;2022-10-18T10:08:32;16.50;99.90
7192;DHT22;3637;51.494;11.958;2022-10-18T10:11:36;16.40;99.90
7192;DHT22;3637;51.494;11.958;2022-10-18T10:14:43;16.30;99.90
7192;DHT22;3637;51.494;11.958;2022-10-18T10:17:54;16.40;99.90
7192;DHT22;3637;51.494;11.958;2022-10-18T10:20:58;16.60;99.90
7192;DHT22;3637;51.494;11.958;2022-10-18T10:24:01;16.50;99.90
7192;DHT22;3637;51.494;11.958;2022-10-18T10:27:05;16.50;99.90
7192;DHT22;3637;51.494;11.958;2022-10-18T10:30:21;16.50;99.90
7192;DHT22;3637;51.494;11.958;2022-10-18T10:33:33;16.50;99.90
7192;DHT22;3637;51.494;11.958;2022-10-18T10:36:45;16.50;99.90
7192;DHT22;3637;51.494;11.958;2022-10-18T10:43:25;16.40;99.90
7192;DHT22;3637;51.494;11.958;2022-10-18T10:46:34;16.40;99.90
7192;DHT22;3637;51.494;11.958;2022-10-18T10:49:42;16.40;99.90
7192;DHT22;3637;51.494;11.958;2022-10-18T10:52:46;16.40;99.90
7192;DHT22;3637;51.494;11.958;2022-10-18T10:55:53;16.40;99.90
7192;DHT22;3637;51.494;11.958;2022-10-18T10:59:00;16.40;99.90
7192;DHT22;3637;51.494;11.958;2022-10-18T11:02:22;16.40;99.90
7192;DHT22;3637;51.494;11.958;2022-10-18T11:05:25;16.50;99.90
7192;DHT22;3637;51.494;11.958;2022-10-18T11:08:34;16.40;99.90
7192;DHT22;3637;51.494;11.958;2022-10-18T11:11:42;16.40;99.90
7192;DHT22;3637;51.494;11.958;2022-10-18T11:14:52;16.40;99.90
7192;DHT22;3637;51.494;11.958;2022-10-18T11:18:07;16.30;99.90
7192;DHT22;3637;51.494;11.958;2022-10-18T11:21:16;16.30;99.90
7192;DHT22;3637;51.494;11.958;2022-10-18T11:24:19;16.30;99.90
7192;DHT22;3637;51.494;11.958;2022-10-18T11:27:26;16.30;99.90
7192;DHT22;3637;51.494;11.958;2022-10-18T11:30:48;16.30;99.90
7192;DHT22;3637;51.494;11.958;2022-10-18T11:34:03;16.50;99.90
7192;DHT22;3637;51.494;11.958;2022-10-18T11:37:16;16.30;99.90
7192;DHT22;3637;51.494;11.958;2022-10-18T11:40:36;16.30;99.90
7192;DHT22;3637;51.494;11.958;2022-10-18T11:43:49;16.50;99.90
7192;DHT22;3637;51.494;11.958;2022-10-18T11:46:59;16.30;99.90
7192;DHT22;3637;51.494;11.958;2022-10-18T11:50:15;16.30;99.90
7192;DHT22;3637;51.494;11.958;2022-10-18T11:53:26;16.40;99.90
7192;DHT22;3637;51.494;11.958;2022-10-18T11:56:37;16.40;99.90
7192;DHT22;3637;51.494;11.958;2022-10-18T11:59:49;16.40;99.90
7192;DHT22;3637;51.494;11.958;2022-10-18T12:03:07;16.40;99.90
7192;DHT22;3637;51.494;11.958;2022-10-18T12:06:17;16.50;99.90
7192;DHT22;3637;51.494;11.958;2022-10-18T12:09:26;16.40;99.90
7192;DHT22;3637;51.494;11.958;2022-10-18T12:12:31;16.50;99.90
7192;DHT22;3637;51.494;11.958;2022-10-18T12:15:35;16.50;99.90
7192;DHT22;3637;51.494;11.958;2022-10-18T12:18:53;16.50;99.90
7192;DHT22;3637;51.494;11.958;2022-10-18T12:22:05;16.70;99.90
7192;DHT22;3637;51.494;11.958;2022-10-18T12:25:11;16.50;99.90
7192;DHT22;3637;51.494;11.958;2022-10-18T12:28:24;16.60;99.90
7192;DHT22;3637;51.494;11.958;2022-10-18T12:31:32;16.60;99.90
7192;DHT22;3637;51.494;11.958;2022-10-18T12:34:41;16.80;99.90
7192;DHT22;3637;51.494;11.958;2022-10-18T12:37:59;16.70;99.90
7192;DHT22;3637;51.494;11.958;2022-10-18T12:41:04;16.80;99.90
7192;DHT22;3637;51.494;11.958;2022-10-18T12:44:17;16.80;99.90
7192;DHT22;3637;51.494;11.958;2022-10-18T12:47:22;16.80;99.90
7192;DHT22;3637;51.494;11.958;2022-10-18T12:50:30;16.80;99.90
7192;DHT22;3637;51.494;11.958;2022-10-18T12:53:34;16.90;99.90
7192;DHT22;3637;51.494;11.958;2022-10-18T12:56:39;17.00;99.90
7192;DHT22;3637;51.494;11.958;2022-10-18T12:59:41;17.00;99.90
7192;DHT22;3637;51.494;11.958;2022-10-18T13:02:43;17.30;99.90
7192;DHT22;3637;51.494;11.958;2022-10-18T13:05:56;17.20;99.90
7192;DHT22;3637;51.494;11.958;2022-10-18T13:09:20;17.20;99.90
7192;DHT22;3637;51.494;11.958;2022-10-18T13:12:52;17.10;99.90
7192;DHT22;3637;51.494;11.958;2022-10-18T13:16:02;17.00;99.90
7192;DHT22;3637;51.494;11.958;2022-10-18T13:19:22;17.00;99.90
7192;DHT22;3637;51.494;11.958;2022-10-18T13:22:42;17.10;99.90
7192;DHT22;3637;51.494;11.958;2022-10-18T13:25:56;17.10;99.90
7192;DHT22;3637;51.494;11.958;2022-10-18T13:29:04;17.10;99.90
7192;DHT22;3637;51.494;11.958;2022-10-18T13:32:20;17.10;99.90
7192;DHT22;3637;51.494;11.958;2022-10-18T13:35:43;17.00;99.90
7192;DHT22;3637;51.494;11.958;2022-10-18T13:38:59;17.00;99.90
7192;DHT22;3637;51.494;11.958;2022-10-18T13:42:30;17.40;99.90
7192;DHT22;3637;51.494;11.958;2022-10-18T13:45:51;17.10;99.90
7192;DHT22;3637;51.494;11.958;2022-10-18T13:48:58;17.20;99.90
7192;DHT22;3637;51.494;11.958;2022-10-18T13:52:04;17.10;99.90
7192;DHT22;3637;51.494;11.958;2022-10-18T13:55:25;17.10;99.90
7192;DHT22;3637;51.494;11.958;2022-10-18T13:58:39;17.00;99.90
7192;DHT22;3637;51.494;11.958;2022-10-18T14:02:00;17.00;99.90
7192;DHT22;3637;51.494;11.958;2022-10-18T14:05:16;17.10;99.90
7192;DHT22;3637;51.494;11.958;2022-10-18T14:08:23;17.10;99.90
7192;DHT22;3637;51.494;11.958;2022-10-18T14:11:32;17.20;99.90
7192;DHT22;3637;51.494;11.958;2022-10-18T14:14:40;17.10;99.90
7192;DHT22;3637;51.494;11.958;2022-10-18T14:17:46;17.10;99.90
7192;DHT22;3637;51.494;11.958;2022-10-18T14:20:52;17.10;99.90
7192;DHT22;3637;51.494;11.958;2022-10-18T14:23:56;17.10;99.90
7192;DHT22;3637;51.494;11.958;2022-10-18T14:27:14;17.20;99.90
7192;DHT22;3637;51.494;11.958;2022-10-18T14:30:19;17.10;99.90
7192;DHT22;3637;51.494;11.958;2022-10-18T14:33:26;17.10;99.90
7192;DHT22;3637;51.494;11.958;2022-10-18T14:36:33;17.10;99.90
7192;DHT22;3637;51.494;11.958;2022-10-18T14:39:37;17.30;99.90
7192;DHT22;3637;51.494;11.958;2022-10-18T14:42:47;17.10;99.90
7192;DHT22;3637;51.494;11.958;2022-10-18T14:45:51;17.30;99.90
7192;DHT22;3637;51.494;11.958;2022-10-18T14:48:54;17.10;99.90
7192;DHT22;3637;51.494;11.958;2022-10-18T14:51:58;17.10;99.90
7192;DHT22;3637;51.494;11.958;2022-10-18T14:55:01;17.00;99.90
7192;DHT22;3637;51.494;11.958;2022-10-18T14:58:10;17.10;99.90
7192;DHT22;3637;51.494;11.958;2022-10-18T15:01:17;17.10;99.90
7192;DHT22;3637;51.494;11.958;2022-10-18T15:04:20;17.10;99.90
7192;DHT22;3637;51.494;11.958;2022-10-18T15:07:23;17.10;99.90
7192;DHT22;3637;51.494;11.958;2022-10-18T15:10:30;17.10;99.90
7192;DHT22;3637;51.494;11.958;2022-10-18T15:13:34;17.10;99.90
7192;DHT22;3637;51.494;11.958;2022-10-18T15:16:38;17.20;99.90
7192;DHT22;3637;51.494;11.958;2022-10-18T15:19:53;17.10;99.90
7192;DHT22;3637;51.494;11.958;2022-10-18T15:23:20;17.10;99.90
7192;DHT22;3637;51.494;11.958;2022-10-18T15:26:25;17.10;99.90
7192;DHT22;3637;51.494;11.958;2022-10-18T15:29:30;17.30;99.90
7192;DHT22;3637;51.494;11.958;2022-10-18T15:32:37;17.00;99.90
7192;DHT22;3637;51.494;11.958;2022-10-18T15:35:47;16.90;99.90
7192;DHT22;3637;51.494;11.958;2022-10-18T15:38:49;17.10;99.90
7192;DHT22;3637;51.494;11.958;2022-10-18T15:41:53;16.90;99.90
7192;DHT22;3637;51.494;11.958;2022-10-18T15:44:55;16.90;99.90
7192;DHT22;3637;51.494;11.958;2022-10-18T15:48:18;16.90;99.90
7192;DHT22;3637;51.494;11.958;2022-10-18T15:51:38;16.90;99.90
7192;DHT22;3637;51.494;11.958;2022-10-18T15:54:47;16.80;99.90
7192;DHT22;3637;51.494;11.958;2022-10-18T15:57:49;16.80;99.90
7192;DHT22;3637;51.494;11.958;2022-10-18T16:00:53;16.80;99.90
7192;DHT22;3637;51.494;11.958;2022-10-18T16:03:58;16.70;99.90
7192;DHT22;3637;51.494;11.958;2022-10-18T16:07:01;16.60;99.90
7192;DHT22;3637;51.494;11.958;2022-10-18T16:10:11;16.60;99.90
7192;DHT22;3637;51.494;11.958;2022-10-18T16:13:13;16.50;99.90
7192;DHT22;3637;51.494;11.958;2022-10-18T16:16:18;16.50;99.90
7192;DHT22;3637;51.494;11.958;2022-10-18T16:19:21;16.50;99.90
7192;DHT22;3637;51.494;11.958;2022-10-18T16:22:23;16.50;99.90
7192;DHT22;3637;51.494;11.958;2022-10-18T16:25:25;16.40;99.90
7192;DHT22;3637;51.494;11.958;2022-10-18T16:28:27;16.60;99.90
7192;DHT22;3637;51.494;11.958;2022-10-18T16:31:32;16.30;99.90
7192;DHT22;3637;51.494;11.958;2022-10-18T16:34:36;16.30;99.90
7192;DHT22;3637;51.494;11.958;2022-10-18T16:37:38;16.20;99.90
7192;DHT22;3637;51.494;11.958;2022-10-18T16:40:40;16.40;99.90
7192;DHT22;3637;51.494;11.958;2022-10-18T16:43:43;16.20;99.90
7192;DHT22;3637;51.494;11.958;2022-10-18T16:46:46;16.30;99.90
7192;DHT22;3637;51.494;11.958;2022-10-18T16:49:49;16.10;99.90
7192;DHT22;3637;51.494;11.958;2022-10-18T16:52:51;16.10;99.90
7192;DHT22;3637;51.494;11.958;2022-10-18T16:55:54;16.10;99.90
7192;DHT22;3637;51.494;11.958;2022-10-18T16:58:57;16.20;99.90
7192;DHT22;3637;51.494;11.958;2022-10-18T17:01:59;16.00;99.90
7192;DHT22;3637;51.494;11.958;2022-10-18T17:05:07;16.00;99.90
7192;DHT22;3637;51.494;11.958;2022-10-18T17:08:16;15.90;99.90
7192;DHT22;3637;51.494;11.958;2022-10-18T17:11:20;15.90;99.90
7192;DHT22;3637;51.494;11.958;2022-10-18T17:14:22;15.90;99.90
7192;DHT22;3637;51.494;11.958;2022-10-18T17:17:24;15.90;99.90
7192;DHT22;3637;51.494;11.958;2022-10-18T17:20:27;16.00;99.90
7192;DHT22;3637;51.494;11.958;2022-10-18T17:23:29;15.80;99.90
7192;DHT22;3637;51.494;11.958;2022-10-18T17:26:32;15.70;99.90
7192;DHT22;3637;51.494;11.958;2022-10-18T17:29:34;15.70;99.90
7192;DHT22;3637;51.494;11.958;2022-10-18T17:32:36;15.70;99.90
7192;DHT22;3637;51.494;11.958;2022-10-18T17:35:40;15.70;99.90
7192;DHT22;3637;51.494;11.958;2022-10-18T17:38:43;15.70;99.90
7192;DHT22;3637;51.494;11.958;2022-10-18T17:41:47;15.60;99.90
7192;DHT22;3637;51.494;11.958;2022-10-18T17:44:50;15.80;99.90
7192;DHT22;3637;51.494;11.958;2022-10-18T17:47:51;15.60;99.90
7192;DHT22;3637;51.494;11.958;2022-10-18T17:50:55;15.60;99.90
7192;DHT22;3637;51.494;11.958;2022-10-18T17:53:58;15.50;99.90
7192;DHT22;3637;51.494;11.958;2022-10-18T17:56:59;15.50;99.90
7192;DHT22;3637;51.494;11.958;2022-10-18T18:00:02;15.50;99.90
7192;DHT22;3637;51.494;11.958;2022-10-18T18:03:04;15.60;99.90
7192;DHT22;3637;51.494;11.958;2022-10-18T18:06:15;15.50;99.90
7192;DHT22;3637;51.494;11.958;2022-10-18T18:09:17;15.50;99.90
7192;DHT22;3637;51.494;11.958;2022-10-18T18:12:20;15.50;99.90
7192;DHT22;3637;51.494;11.958;2022-10-18T18:15:22;15.50;99.90
7192;DHT22;3637;51.494;11.958;2022-10-18T18:18:24;15.40;99.90
7192;DHT22;3637;51.494;11.958;2022-10-18T18:21:27;15.40;99.90
7192;DHT22;3637;51.494;11.958;2022-10-18T18:24:29;15.30;99.90
7192;DHT22;3637;51.494;11.958;2022-10-18T18:27:31;15.30;99.90
7192;DHT22;3637;51.494;11.958;2022-10-18T18:30:33;15.20;99.90
7192;DHT22;3637;51.494;11.958;2022-10-18T18:33:35;15.20;99.90
7192;DHT22;3637;51.494;11.958;2022-10-18T18:36:39;15.10;99.90
7192;DHT22;3637;51.494;11.958;2022-10-18T18:39:41;15.10;99.90
7192;DHT22;3637;51.494;11.958;2022-10-18T18:42:43;15.10;99.90
7192;DHT22;3637;51.494;11.958;2022-10-18T18:45:49;15.00;99.90
7192;DHT22;3637;51.494;11.958;2022-10-18T18:48:52;15.00;99.90
7192;DHT22;3637;51.494;11.958;2022-10-18T18:51:55;15.00;99.90
7192;DHT22;3637;51.494;11.958;2022-10-18T18:54:57;15.00;99.90
7192;DHT22;3637;51.494;11.958;2022-10-18T18:57:59;14.80;99.90
7192;DHT22;3637;51.494;11.958;2022-10-18T19:01:05;14.80;99.90
7192;DHT22;3637;51.494;11.958;2022-10-18T19:04:08;14.80;99.90
7192;DHT22;3637;51.494;11.958;2022-10-18T19:07:12;14.80;99.90
7192;DHT22;3637;51.494;11.958;2022-10-18T19:10:14;14.70;99.90
7192;DHT22;3637;51.494;11.958;2022-10-18T19:13:15;14.70;99.90
7192;DHT22;3637;51.494;11.958;2022-10-18T19:16:22;14.70;99.90
7192;DHT22;3637;51.494;11.958;2022-10-18T19:19:25;14.70;99.90
7192;DHT22;3637;51.494;11.958;2022-10-18T19:22:31;14.60;99.90
7192;DHT22;3637;51.494;11.958;2022-10-18T19:25:33;14.70;99.90
7192;DHT22;3637;51.494;11.958;2022-10-18T19:28:35;14.60;99.90
7192;DHT22;3637;51.494;11.958;2022-10-18T19:31:38;14.50;99.90
7192;DHT22;3637;51.494;11.958;2022-10-18T19:34:40;14.50;99.90
7192;DHT22;3637;51.494;11.958;2022-10-18T19:37:44;14.50;99.90
7192;DHT22;3637;51.494;11.958;2022-10-18T19:40:46;14.60;99.90
7192;DHT22;3637;51.494;11.958;2022-10-18T19:43:48;14.40;99.90
7192;DHT22;3637;51.494;11.958;2022-10-18T19:46:50;14.60;99.90
7192;DHT22;3637;51.494;11.958;2022-10-18T19:49:52;14.40;99.90
7192;DHT22;3637;51.494;11.958;2022-10-18T19:52:56;14.20;99.90
7192;DHT22;3637;51.494;11.958;2022-10-18T19:55:58;14.20;99.90
7192;DHT22;3637;51.494;11.958;2022-10-18T19:59:00;14.40;99.90